createdAt,value
2017-01-21T00:00:28.227Z,67.87
2017-01-21T00:01:28.238Z,67.68
2017-01-21T00:02:28.250Z,67.87
2017-01-21T00:03:28.264Z,67.77
2017-01-21T00:04:28.271Z,67.96
2017-01-21T00:05:28.281Z,67.58
2017-01-21T00:06:28.291Z,67.96
2017-01-21T00:07:28.304Z,67.65
2017-01-21T00:08:28.313Z,67.55
2017-01-21T00:09:28.326Z,67.93
2017-01-21T00:10:28.332Z,68.02
2017-01-21T00:11:28.343Z,67.93
2017-01-21T00:12:28.361Z,67.93
2017-01-21T00:13:28.365Z,67.93
2017-01-21T00:14:28.380Z,67.83
2017-01-21T00:15:28.386Z,67.74
2017-01-21T00:16:28.395Z,67.93
2017-01-21T00:17:28.409Z,68.02
2017-01-21T00:18:28.419Z,67.93
2017-01-21T00:19:28.428Z,67.93
2017-01-21T00:20:28.438Z,67.93
2017-01-21T00:21:28.453Z,67.74
2017-01-21T00:22:28.466Z,68.02
2017-01-21T00:23:28.470Z,67.74
2017-01-21T00:24:28.481Z,67.65
2017-01-21T00:25:28.496Z,67.74
2017-01-21T00:26:28.513Z,67.83
2017-01-21T00:27:28.514Z,67.93
2017-01-21T00:28:28.523Z,67.65
2017-01-21T00:29:28.534Z,67.93
2017-01-21T00:30:28.545Z,67.55
2017-01-21T00:31:28.555Z,67.93
2017-01-21T00:32:28.564Z,67.74
2017-01-21T00:33:28.577Z,67.65
2017-01-21T00:34:28.591Z,67.74
2017-01-21T00:35:28.593Z,67.65
2017-01-21T00:36:28.606Z,67.46
2017-01-21T00:37:28.616Z,67.83
2017-01-21T00:38:28.627Z,67.83
2017-01-21T00:39:28.634Z,67.46
2017-01-21T00:40:28.646Z,67.65
2017-01-21T00:41:28.664Z,68.31
2017-01-21T00:42:28.673Z,67.74
2017-01-21T00:43:28.699Z,67.46
2017-01-21T00:44:28.701Z,67.93
2017-01-21T00:45:28.699Z,67.74
2017-01-21T00:46:28.712Z,67.36
2017-01-21T00:47:28.721Z,67.83
2017-01-21T00:48:28.732Z,67.74
2017-01-21T00:49:28.741Z,67.74
2017-01-21T00:50:28.751Z,67.46
2017-01-21T00:51:28.760Z,67.55
2017-01-21T00:52:28.773Z,67.83
2017-01-21T00:53:28.785Z,67.46
2017-01-21T00:54:28.796Z,67.74
2017-01-21T00:55:28.809Z,67.74
2017-01-21T00:56:28.816Z,67.93
2017-01-21T00:57:28.821Z,67.65
2017-01-21T00:58:28.833Z,67.74
2017-01-21T00:59:28.846Z,67.36
2017-01-21T01:00:28.853Z,67.65
2017-01-21T01:01:28.866Z,67.46
2017-01-21T01:02:28.874Z,67.55
2017-01-21T01:03:28.883Z,67.46
2017-01-21T01:04:28.893Z,67.55
2017-01-21T01:05:28.909Z,67.46
2017-01-21T01:06:28.920Z,67.46
2017-01-21T01:07:28.928Z,67.36
2017-01-21T01:08:28.935Z,67.46
2017-01-21T01:09:28.948Z,67.46
2017-01-21T01:10:28.956Z,67.46
2017-01-21T01:11:28.967Z,67.27
2017-01-21T01:12:28.975Z,67.36
2017-01-21T01:13:28.985Z,67.27
2017-01-21T01:14:28.998Z,67.55
2017-01-21T01:15:29.010Z,67.46
2017-01-21T01:16:29.030Z,67.55
2017-01-21T01:17:29.026Z,67.74
2017-01-21T01:18:29.039Z,67.55
2017-01-21T01:19:29.047Z,67.46
2017-01-21T01:20:29.058Z,67.46
2017-01-21T01:21:29.071Z,67.46
2017-01-21T01:22:29.080Z,67.36
2017-01-21T01:23:29.091Z,67.27
2017-01-21T01:24:29.099Z,67.46
2017-01-21T01:25:29.111Z,67.46
2017-01-21T01:26:29.121Z,67.55
2017-01-21T01:27:29.129Z,67.55
2017-01-21T01:28:29.147Z,67.36
2017-01-21T01:29:29.154Z,67.18
2017-01-21T01:30:29.161Z,67.27
2017-01-21T01:31:29.171Z,67.46
2017-01-21T01:32:29.185Z,67.36
2017-01-21T01:33:29.193Z,67.27
2017-01-21T01:34:29.204Z,67.27
2017-01-21T01:35:29.216Z,67.27
2017-01-21T01:36:29.221Z,67.36
2017-01-21T01:37:29.232Z,67.46
2017-01-21T01:38:29.242Z,67.46
2017-01-21T01:39:29.258Z,67.36
2017-01-21T01:40:29.268Z,67.36
2017-01-21T01:41:29.275Z,67.36
2017-01-21T01:42:29.681Z,67.36
2017-01-21T01:43:29.293Z,67.27
2017-01-21T01:44:29.304Z,67.46
2017-01-21T01:45:29.314Z,67.36
2017-01-21T01:46:29.323Z,67.74
2017-01-21T01:47:29.336Z,67.55
2017-01-21T01:48:29.345Z,67.74
2017-01-21T01:49:29.360Z,67.74
2017-01-21T01:50:29.367Z,67.55
2017-01-21T01:51:29.382Z,67.83
2017-01-21T01:52:29.391Z,67.65
2017-01-21T01:53:29.398Z,67.83
2017-01-21T01:54:29.407Z,67.55
2017-01-21T01:55:29.427Z,67.55
2017-01-21T01:56:29.431Z,67.83
2017-01-21T01:57:29.436Z,67.74
2017-01-21T01:58:29.454Z,67.83
2017-01-21T01:59:29.464Z,67.65
2017-01-21T02:00:29.471Z,67.55
2017-01-21T02:01:29.482Z,67.27
2017-01-21T02:02:29.484Z,67.27
2017-01-21T02:03:29.496Z,67.27
2017-01-21T02:04:29.504Z,67.27
2017-01-21T02:05:29.517Z,67.27
2017-01-21T02:06:29.556Z,67.36
2017-01-21T02:07:29.536Z,67.65
2017-01-21T02:08:29.548Z,67.65
2017-01-21T02:09:29.555Z,67.83
2017-01-21T02:10:29.567Z,68.02
2017-01-21T02:11:29.581Z,67.27
2017-01-21T02:12:29.591Z,67.36
2017-01-21T02:13:29.601Z,67.46
2017-01-21T02:14:29.609Z,67.55
2017-01-21T02:15:29.622Z,67.46
2017-01-21T02:16:29.629Z,67.36
2017-01-21T02:17:29.640Z,67.46
2017-01-21T02:18:29.650Z,67.27
2017-01-21T02:19:29.666Z,67.46
2017-01-21T02:20:29.673Z,67.55
2017-01-21T02:21:29.677Z,67.46
2017-01-21T02:22:29.688Z,67.46
2017-01-21T02:23:29.700Z,67.46
2017-01-21T02:24:29.710Z,67.55
2017-01-21T02:25:29.729Z,67.83
2017-01-21T02:26:29.729Z,67.55
2017-01-21T02:27:29.743Z,67.46
2017-01-21T02:28:29.749Z,67.74
2017-01-21T02:29:29.761Z,67.65
2017-01-21T02:30:29.770Z,67.74
2017-01-21T02:31:29.780Z,67.24
2017-01-21T02:32:29.787Z,67.46
2017-01-21T02:33:29.799Z,67.83
2017-01-21T02:34:29.805Z,67.74
2017-01-21T02:35:29.817Z,67.43
2017-01-21T02:36:29.828Z,67.65
2017-01-21T02:37:29.847Z,67.52
2017-01-21T02:38:29.854Z,67.9
2017-01-21T02:39:29.875Z,67.74
2017-01-21T02:40:29.866Z,68.02
2017-01-21T02:41:29.878Z,67.55
2017-01-21T02:42:29.896Z,67.83
2017-01-21T02:43:29.900Z,67.83
2017-01-21T02:44:29.907Z,67.46
2017-01-21T02:45:29.915Z,67.36
2017-01-21T02:46:29.939Z,67.8
2017-01-21T02:47:29.940Z,67.36
2017-01-21T02:48:29.956Z,67.55
2017-01-21T02:49:29.958Z,67.74
2017-01-21T02:50:29.972Z,67.55
2017-01-21T02:51:29.985Z,67.74
2017-01-21T02:52:29.990Z,67.52
2017-01-21T02:53:30.004Z,67.46
2017-01-21T02:54:30.014Z,67.61
2017-01-21T02:55:30.024Z,67.55
2017-01-21T02:56:30.030Z,67.33
2017-01-21T02:57:30.044Z,67.71
2017-01-21T02:58:30.055Z,67.83
2017-01-21T02:59:30.062Z,67.74
2017-01-21T03:00:30.070Z,67.46
2017-01-21T03:01:30.080Z,67.55
2017-01-21T03:02:30.088Z,67.74
2017-01-21T03:03:30.101Z,67.43
2017-01-21T03:04:30.108Z,67.46
2017-01-21T03:05:30.119Z,67.65
2017-01-21T03:06:30.129Z,67.55
2017-01-21T03:07:30.139Z,67.93
2017-01-21T03:08:30.148Z,67.65
2017-01-21T03:09:30.160Z,67.43
2017-01-21T03:10:30.168Z,67.83
2017-01-21T03:11:30.176Z,67.61
2017-01-21T03:12:30.189Z,67.93
2017-01-21T03:13:30.196Z,68.27
2017-01-21T03:14:30.210Z,67.46
2017-01-21T03:15:30.217Z,67.71
2017-01-21T03:16:30.230Z,67.52
2017-01-21T03:17:30.246Z,67.93
2017-01-21T03:18:30.250Z,67.61
2017-01-21T03:19:30.256Z,67.43
2017-01-21T03:20:30.267Z,67.8
2017-01-21T03:21:30.281Z,67.8
2017-01-21T03:22:30.286Z,67.71
2017-01-21T03:23:30.298Z,67.9
2017-01-21T03:24:30.343Z,67.61
2017-01-21T03:25:30.344Z,67.43
2017-01-21T03:26:30.328Z,67.8
2017-01-21T03:27:30.338Z,67.43
2017-01-21T03:28:30.345Z,67.71
2017-01-21T03:29:30.357Z,67.9
2017-01-21T03:30:30.367Z,67.8
2017-01-21T03:31:30.372Z,67.43
2017-01-21T03:32:30.384Z,67.8
2017-01-21T03:33:30.401Z,67.71
2017-01-21T03:34:30.413Z,67.52
2017-01-21T03:35:30.414Z,67.61
2017-01-21T03:36:30.422Z,67.24
2017-01-21T03:37:30.441Z,67.24
2017-01-21T03:38:30.445Z,67.43
2017-01-21T03:39:30.455Z,67.61
2017-01-21T03:40:30.464Z,67.43
2017-01-21T03:41:30.473Z,67.52
2017-01-21T03:42:30.483Z,67.52
2017-01-21T03:43:30.493Z,67.33
2017-01-21T03:44:30.499Z,67.8
2017-01-21T03:45:30.513Z,67.43
2017-01-21T03:46:30.522Z,67.43
2017-01-21T03:47:30.531Z,67.61
2017-01-21T03:48:30.543Z,67.71
2017-01-21T03:49:30.551Z,67.99
2017-01-21T03:50:30.560Z,68.08
2017-01-21T03:51:30.572Z,67.61
2017-01-21T03:52:30.581Z,67.61
2017-01-21T03:53:30.590Z,67.9
2017-01-21T03:54:30.603Z,67.8
2017-01-21T03:55:30.618Z,67.61
2017-01-21T03:56:30.633Z,67.8
2017-01-21T03:57:30.632Z,67.43
2017-01-21T03:58:30.640Z,67.52
2017-01-21T03:59:30.653Z,67.8
2017-01-21T04:00:30.661Z,67.9
2017-01-21T04:01:30.668Z,67.8
2017-01-21T04:02:30.681Z,67.52
2017-01-21T04:03:30.691Z,67.61
2017-01-21T04:04:30.699Z,67.61
2017-01-21T04:05:30.706Z,67.33
2017-01-21T04:06:30.717Z,67.43
2017-01-21T04:07:30.730Z,67.43
2017-01-21T04:08:30.742Z,67.52
2017-01-21T04:09:30.745Z,67.33
2017-01-21T04:10:30.758Z,67.8
2017-01-21T04:11:30.771Z,67.61
2017-01-21T04:12:30.776Z,67.43
2017-01-21T04:13:30.790Z,67.33
2017-01-21T04:14:30.803Z,67.43
2017-01-21T04:15:30.809Z,67.24
2017-01-21T04:16:30.824Z,67.14
2017-01-21T04:17:30.823Z,67.43
2017-01-21T04:18:30.836Z,67.43
2017-01-21T04:19:30.843Z,67.43
2017-01-21T04:20:30.856Z,67.52
2017-01-21T04:21:30.866Z,67.61
2017-01-21T04:22:30.874Z,67.24
2017-01-21T04:23:30.890Z,67.24
2017-01-21T04:24:30.895Z,67.24
2017-01-21T04:25:30.908Z,67.24
2017-01-21T04:26:30.910Z,67.24
2017-01-21T04:27:30.927Z,67.24
2017-01-21T04:28:30.938Z,67.9
2017-01-21T04:29:30.950Z,67.52
2017-01-21T04:30:30.954Z,67.43
2017-01-21T04:31:30.965Z,67.33
2017-01-21T04:32:30.971Z,67.52
2017-01-21T04:33:30.981Z,67.33
2017-01-21T04:34:30.995Z,67.33
2017-01-21T04:35:30.999Z,67.33
2017-01-21T04:36:31.011Z,67.24
2017-01-21T04:37:31.020Z,67.24
2017-01-21T04:38:31.029Z,67.33
2017-01-21T04:39:31.045Z,67.14
2017-01-21T04:40:31.056Z,67.43
2017-01-21T04:41:31.063Z,67.24
2017-01-21T04:42:31.067Z,67.43
2017-01-21T04:43:31.078Z,67.43
2017-01-21T04:44:31.091Z,67.43
2017-01-21T04:45:31.099Z,67.43
2017-01-21T04:46:31.109Z,67.33
2017-01-21T04:47:31.117Z,67.43
2017-01-21T04:48:31.128Z,67.61
2017-01-21T04:49:31.135Z,67.14
2017-01-21T04:50:31.144Z,67.43
2017-01-21T04:51:31.155Z,67.43
2017-01-21T04:52:31.169Z,67.52
2017-01-21T04:53:31.172Z,67.43
2017-01-21T04:54:31.189Z,67.43
2017-01-21T04:55:31.193Z,67.61
2017-01-21T04:56:31.202Z,67.52
2017-01-21T04:57:31.217Z,67.24
2017-01-21T04:58:31.228Z,67.43
2017-01-21T04:59:31.250Z,67.14
2017-01-21T05:00:31.252Z,67.43
2017-01-21T05:01:31.260Z,67.14
2017-01-21T05:02:31.267Z,67.14
2017-01-21T05:03:31.274Z,67.14
2017-01-21T05:04:31.279Z,67.14
2017-01-21T05:05:31.293Z,67.43
2017-01-21T05:06:31.303Z,67.24
2017-01-21T05:07:31.310Z,67.43
2017-01-21T05:08:31.322Z,67.43
2017-01-21T05:09:31.327Z,67.61
2017-01-21T05:10:31.337Z,67.43
2017-01-21T05:11:31.346Z,67.43
2017-01-21T05:12:31.358Z,67.61
2017-01-21T05:13:31.366Z,67.52
2017-01-21T05:14:31.376Z,67.43
2017-01-21T05:15:31.387Z,67.52
2017-01-21T05:16:31.397Z,67.52
2017-01-21T05:17:31.405Z,67.33
2017-01-21T05:18:31.411Z,67.43
2017-01-21T05:19:31.423Z,67.52
2017-01-21T05:20:31.430Z,67.14
2017-01-21T05:21:31.445Z,67.52
2017-01-21T05:22:31.458Z,67.43
2017-01-21T05:23:31.465Z,67.43
2017-01-21T05:24:31.478Z,67.52
2017-01-21T05:25:31.480Z,67.43
2017-01-21T05:26:31.493Z,67.52
2017-01-21T05:27:31.499Z,67.43
2017-01-21T05:28:31.518Z,67.43
2017-01-21T05:29:31.517Z,67.14
2017-01-21T05:30:31.526Z,67.43
2017-01-21T05:31:31.537Z,67.24
2017-01-21T05:32:31.549Z,67.14
2017-01-21T05:33:31.566Z,67.14
2017-01-21T05:34:31.572Z,67.52
2017-01-21T05:35:31.581Z,67.43
2017-01-21T05:36:31.585Z,67.61
2017-01-21T05:37:31.594Z,67.14
2017-01-21T05:38:31.604Z,67.52
2017-01-21T05:39:31.612Z,67.71
2017-01-21T05:40:31.621Z,67.61
2017-01-21T05:41:31.631Z,67.71
2017-01-21T05:42:31.643Z,67.9
2017-01-21T05:43:31.652Z,67.52
2017-01-21T05:44:31.663Z,67.61
2017-01-21T05:45:31.679Z,67.61
2017-01-21T05:46:31.679Z,67.99
2017-01-21T05:47:31.692Z,67.52
2017-01-21T05:48:31.699Z,67.52
2017-01-21T05:49:31.705Z,67.61
2017-01-21T05:50:31.717Z,67.71
2017-01-21T05:51:31.728Z,67.71
2017-01-21T05:52:31.736Z,67.8
2017-01-21T05:53:31.744Z,68.08
2017-01-21T05:54:31.754Z,67.99
2017-01-21T05:55:31.767Z,68.27
2017-01-21T05:56:31.770Z,68.18
2017-01-21T05:57:31.785Z,68.18
2017-01-21T05:58:31.795Z,67.99
2017-01-21T05:59:31.900Z,68.18
2017-01-21T06:00:31.817Z,68.18
2017-01-21T06:01:31.824Z,68.27
2017-01-21T06:02:31.832Z,67.71
2017-01-21T06:03:31.842Z,67.99
2017-01-21T06:04:31.849Z,68.37
2017-01-21T06:05:31.859Z,68.18
2017-01-21T06:06:31.869Z,68.08
2017-01-21T06:07:31.882Z,68.46
2017-01-21T06:08:31.889Z,68.18
2017-01-21T06:09:31.897Z,67.99
2017-01-21T06:10:31.909Z,68.27
2017-01-21T06:11:31.918Z,68.18
2017-01-21T06:12:31.927Z,68.18
2017-01-21T06:13:31.935Z,68.18
2017-01-21T06:14:31.948Z,67.99
2017-01-21T06:15:31.949Z,68.18
2017-01-21T06:16:31.964Z,68.08
2017-01-21T06:17:31.998Z,68.27
2017-01-21T06:18:31.983Z,68.08
2017-01-21T06:19:31.991Z,68.08
2017-01-21T06:20:32.001Z,68.08
2017-01-21T06:21:32.010Z,68.56
2017-01-21T06:22:32.019Z,68.08
2017-01-21T06:23:32.028Z,68.46
2017-01-21T06:24:32.036Z,68.56
2017-01-21T06:25:32.048Z,68.56
2017-01-21T06:26:32.057Z,68.27
2017-01-21T06:27:32.064Z,68.37
2017-01-21T06:28:32.072Z,67.9
2017-01-21T06:29:32.092Z,68.27
2017-01-21T06:30:32.092Z,68.56
2017-01-21T06:31:32.115Z,68.46
2017-01-21T06:32:32.112Z,68.18
2017-01-21T06:33:32.121Z,69.03
2017-01-21T06:34:32.156Z,68.94
2017-01-21T06:35:32.141Z,68.94
2017-01-21T06:36:32.149Z,68.94
2017-01-21T06:37:32.158Z,68.75
2017-01-21T06:38:32.185Z,68.94
2017-01-21T06:39:32.176Z,68.94
2017-01-21T06:40:32.195Z,68.75
2017-01-21T06:41:32.192Z,68.65
2017-01-21T06:42:32.206Z,68.56
2017-01-21T06:43:32.212Z,68.75
2017-01-21T06:44:32.226Z,68.65
2017-01-21T06:45:32.233Z,68.65
2017-01-21T06:46:32.256Z,68.84
2017-01-21T06:47:32.255Z,68.65
2017-01-21T06:48:32.258Z,68.84
2017-01-21T06:49:32.270Z,68.75
2017-01-21T06:50:32.289Z,68.65
2017-01-21T06:51:32.295Z,68.75
2017-01-21T06:52:32.305Z,68.65
2017-01-21T06:53:32.314Z,68.46
2017-01-21T06:54:32.328Z,68.84
2017-01-21T06:55:32.330Z,68.56
2017-01-21T06:56:32.337Z,68.84
2017-01-21T06:57:32.349Z,68.65
2017-01-21T06:58:32.355Z,68.56
2017-01-21T06:59:32.365Z,68.84
2017-01-21T07:00:32.373Z,68.75
2017-01-21T07:01:32.385Z,68.65
2017-01-21T07:02:32.394Z,68.56
2017-01-21T07:03:32.420Z,68.56
2017-01-21T07:04:32.417Z,68.46
2017-01-21T07:05:32.420Z,68.56
2017-01-21T07:06:32.432Z,68.56
2017-01-21T07:07:32.451Z,68.94
2017-01-21T07:08:32.446Z,68.75
2017-01-21T07:09:32.457Z,68.75
2017-01-21T07:10:32.465Z,68.94
2017-01-21T07:11:32.473Z,68.81
2017-01-21T07:12:32.483Z,68.94
2017-01-21T07:13:32.493Z,68.84
2017-01-21T07:14:32.505Z,68.71
2017-01-21T07:15:32.511Z,68.65
2017-01-21T07:16:32.524Z,68.75
2017-01-21T07:17:32.533Z,68.94
2017-01-21T07:18:32.540Z,68.75
2017-01-21T07:19:32.546Z,68.65
2017-01-21T07:20:32.556Z,68.75
2017-01-21T07:21:32.573Z,68.75
2017-01-21T07:22:32.576Z,68.75
2017-01-21T07:23:32.583Z,68.75
2017-01-21T07:24:32.595Z,68.94
2017-01-21T07:25:32.604Z,69.28
2017-01-21T07:26:32.621Z,69
2017-01-21T07:27:32.627Z,69.13
2017-01-21T07:28:32.633Z,68.65
2017-01-21T07:29:32.639Z,68.65
2017-01-21T07:30:32.647Z,69
2017-01-21T07:31:32.672Z,68.94
2017-01-21T07:32:32.672Z,69.32
2017-01-21T07:33:32.681Z,69
2017-01-21T07:34:32.701Z,68.84
2017-01-21T07:35:32.720Z,69.13
2017-01-21T07:36:32.711Z,69.32
2017-01-21T07:37:32.715Z,69.13
2017-01-21T07:38:32.727Z,69
2017-01-21T07:39:32.733Z,69.03
2017-01-21T07:40:32.748Z,69.32
2017-01-21T07:41:32.753Z,69.03
2017-01-21T07:42:32.769Z,69.13
2017-01-21T07:43:32.771Z,69.03
2017-01-21T07:44:32.779Z,69.13
2017-01-21T07:45:32.796Z,69.03
2017-01-21T07:46:32.802Z,68.94
2017-01-21T07:47:32.812Z,69.13
2017-01-21T07:48:32.821Z,68.94
2017-01-21T07:49:32.826Z,68.94
2017-01-21T07:50:32.839Z,69.22
2017-01-21T07:51:32.850Z,68.94
2017-01-21T07:52:32.854Z,69.03
2017-01-21T07:53:32.861Z,68.94
2017-01-21T07:54:32.875Z,69.03
2017-01-21T07:55:32.882Z,69.03
2017-01-21T07:56:32.892Z,68.94
2017-01-21T07:57:32.906Z,68.94
2017-01-21T07:58:32.911Z,68.94
2017-01-21T07:59:32.918Z,68.94
2017-01-21T08:00:32.927Z,68.94
2017-01-21T08:01:32.941Z,69.13
2017-01-21T08:02:32.950Z,68.94
2017-01-21T08:03:32.957Z,69.13
2017-01-21T08:04:32.964Z,69.13
2017-01-21T08:05:32.975Z,69.22
2017-01-21T08:06:32.989Z,69.32
2017-01-21T08:07:32.993Z,69.03
2017-01-21T08:08:33.005Z,69.03
2017-01-21T08:09:33.010Z,68.94
2017-01-21T08:10:33.021Z,69.13
2017-01-21T08:11:33.036Z,69.13
2017-01-21T08:12:33.040Z,68.84
2017-01-21T08:13:33.054Z,68.84
2017-01-21T08:14:33.057Z,69.13
2017-01-21T08:15:33.067Z,68.94
2017-01-21T08:16:33.075Z,69.13
2017-01-21T08:17:33.081Z,68.94
2017-01-21T08:18:33.095Z,68.56
2017-01-21T08:19:33.104Z,68.65
2017-01-21T08:20:33.108Z,69.6
2017-01-21T08:21:33.123Z,68.84
2017-01-21T08:22:33.129Z,68.56
2017-01-21T08:23:33.140Z,68.56
2017-01-21T08:24:33.149Z,68.84
2017-01-21T08:25:33.165Z,68.75
2017-01-21T08:26:33.167Z,68.65
2017-01-21T08:27:33.226Z,68.94
2017-01-21T08:28:33.191Z,68.65
2017-01-21T08:29:33.196Z,68.65
2017-01-21T08:30:33.209Z,68.84
2017-01-21T08:31:33.216Z,68.65
2017-01-21T08:32:33.222Z,68.65
2017-01-21T08:33:33.230Z,68.46
2017-01-21T08:34:33.243Z,68.65
2017-01-21T08:35:33.254Z,68.65
2017-01-21T08:36:33.268Z,68.65
2017-01-21T08:37:33.269Z,68.75
2017-01-21T08:38:33.277Z,68.56
2017-01-21T08:39:33.311Z,68.46
2017-01-21T08:40:33.299Z,68.65
2017-01-21T08:41:33.310Z,68.65
2017-01-21T08:42:33.314Z,68.65
2017-01-21T08:43:33.334Z,68.84
2017-01-21T08:44:33.337Z,68.65
2017-01-21T08:45:33.353Z,68.65
2017-01-21T08:46:33.361Z,68.56
2017-01-21T08:47:33.360Z,68.75
2017-01-21T08:48:33.370Z,68.75
2017-01-21T08:49:33.383Z,68.56
2017-01-21T08:50:33.389Z,68.65
2017-01-21T08:51:33.398Z,68.56
2017-01-21T08:52:33.410Z,68.75
2017-01-21T08:53:33.418Z,68.65
2017-01-21T08:54:33.428Z,68.46
2017-01-21T08:55:33.439Z,68.84
2017-01-21T08:56:33.449Z,68.75
2017-01-21T08:57:33.458Z,68.84
2017-01-21T08:58:33.464Z,68.65
2017-01-21T08:59:33.477Z,68.65
2017-01-21T09:00:33.486Z,68.56
2017-01-21T09:01:33.496Z,68.65
2017-01-21T09:02:33.509Z,68.75
2017-01-21T09:03:33.512Z,68.59
2017-01-21T09:04:33.531Z,68.59
2017-01-21T09:05:33.535Z,68.65
2017-01-21T09:06:33.548Z,68.79
2017-01-21T09:07:33.550Z,68.46
2017-01-21T09:08:33.560Z,68.69
2017-01-21T09:09:33.571Z,68.69
2017-01-21T09:10:33.579Z,68.69
2017-01-21T09:11:33.589Z,68.69
2017-01-21T09:12:33.603Z,68.69
2017-01-21T09:13:33.608Z,68.5
2017-01-21T09:14:33.620Z,68.5
2017-01-21T09:15:33.631Z,68.69
2017-01-21T09:16:33.640Z,68.69
2017-01-21T09:17:33.656Z,68.5
2017-01-21T09:18:33.657Z,68.69
2017-01-21T09:19:33.668Z,68.88
2017-01-21T09:20:33.677Z,68.59
2017-01-21T09:21:33.688Z,68.5
2017-01-21T09:22:33.696Z,68.69
2017-01-21T09:23:33.706Z,68.69
2017-01-21T09:24:33.715Z,68.69
2017-01-21T09:25:33.728Z,68.88
2017-01-21T09:26:33.739Z,68.59
2017-01-21T09:27:33.747Z,69.07
2017-01-21T09:28:33.756Z,69.35
2017-01-21T09:29:33.765Z,68.88
2017-01-21T09:30:33.778Z,69.07
2017-01-21T09:31:33.957Z,69.07
2017-01-21T09:32:33.957Z,69.26
2017-01-21T09:33:33.811Z,69.45
2017-01-21T09:34:33.821Z,69.17
2017-01-21T09:35:33.951Z,68.98
2017-01-21T09:36:33.951Z,69.07
2017-01-21T09:37:33.949Z,68.98
2017-01-21T09:38:33.852Z,69.07
2017-01-21T09:39:34.059Z,68.98
2017-01-21T09:40:33.944Z,69.17
2017-01-21T09:41:33.881Z,68.88
2017-01-21T09:42:33.890Z,68.88
2017-01-21T09:43:33.898Z,68.59
2017-01-21T09:44:33.910Z,69.64
2017-01-21T09:45:33.923Z,68.88
2017-01-21T09:46:33.935Z,69.35
2017-01-21T09:47:33.937Z,68.98
2017-01-21T09:48:33.948Z,68.98
2017-01-21T09:49:33.957Z,68.98
2017-01-21T09:50:33.970Z,68.88
2017-01-21T09:51:33.977Z,68.98
2017-01-21T09:52:33.990Z,69.2
2017-01-21T09:53:33.994Z,69.01
2017-01-21T09:54:34.006Z,69.1
2017-01-21T09:55:34.021Z,69.29
2017-01-21T09:56:34.024Z,68.82
2017-01-21T09:57:34.034Z,68.91
2017-01-21T09:58:34.042Z,68.73
2017-01-21T09:59:34.065Z,68.73
2017-01-21T10:00:34.067Z,68.63
2017-01-21T10:01:34.071Z,68.63
2017-01-21T10:02:34.084Z,68.73
2017-01-21T10:03:34.093Z,68.63
2017-01-21T10:04:34.101Z,68.73
2017-01-21T10:05:34.110Z,68.54
2017-01-21T10:06:34.122Z,68.73
2017-01-21T10:07:34.133Z,68.73
2017-01-21T10:08:34.144Z,68.73
2017-01-21T10:09:34.157Z,68.63
2017-01-21T10:10:34.166Z,68.91
2017-01-21T10:11:34.172Z,68.63
2017-01-21T10:12:34.178Z,68.73
2017-01-21T10:13:34.218Z,68.91
2017-01-21T10:14:34.201Z,68.82
2017-01-21T10:15:34.211Z,68.73
2017-01-21T10:16:34.225Z,68.63
2017-01-21T10:17:34.230Z,68.63
2017-01-21T10:18:34.241Z,68.73
2017-01-21T10:19:34.253Z,68.91
2017-01-21T10:20:34.261Z,69.01
2017-01-21T10:21:34.269Z,68.91
2017-01-21T10:22:34.279Z,68.73
2017-01-21T10:23:34.293Z,68.82
2017-01-21T10:24:34.302Z,68.85
2017-01-21T10:25:34.313Z,69.01
2017-01-21T10:26:34.324Z,68.95
2017-01-21T10:27:34.332Z,68.29
2017-01-21T10:28:34.341Z,68.1
2017-01-21T10:29:34.361Z,68.1
2017-01-21T10:30:34.365Z,68.38
2017-01-21T10:31:34.375Z,68.29
2017-01-21T10:32:34.384Z,68.38
2017-01-21T10:33:34.396Z,68.29
2017-01-21T10:34:34.404Z,68.38
2017-01-21T10:35:34.422Z,68.1
2017-01-21T10:36:34.428Z,68.1
2017-01-21T10:37:34.438Z,68.19
2017-01-21T10:38:34.445Z,68.29
2017-01-21T10:39:34.459Z,68.66
2017-01-21T10:40:34.465Z,68.1
2017-01-21T10:41:34.483Z,68.1
2017-01-21T10:42:34.490Z,68.29
2017-01-21T10:43:34.499Z,68.19
2017-01-21T10:44:34.508Z,68.29
2017-01-21T10:45:34.523Z,68.29
2017-01-21T10:46:34.530Z,68.19
2017-01-21T10:47:34.548Z,68.19
2017-01-21T10:48:34.554Z,68.29
2017-01-21T10:49:34.614Z,68.57
2017-01-21T10:50:34.574Z,68.19
2017-01-21T10:51:34.586Z,68.29
2017-01-21T10:52:34.592Z,67.81
2017-01-21T10:53:34.604Z,67.62
2017-01-21T10:54:34.613Z,68
2017-01-21T10:55:34.625Z,67.85
2017-01-21T10:56:34.636Z,67.85
2017-01-21T10:57:34.650Z,67.85
2017-01-21T10:58:34.660Z,67.75
2017-01-21T10:59:34.670Z,67.46
2017-01-21T11:00:34.682Z,67.56
2017-01-21T11:01:34.692Z,67.46
2017-01-21T11:02:34.699Z,67.27
2017-01-21T11:03:34.720Z,67.37
2017-01-21T11:04:34.724Z,67.08
2017-01-21T11:05:34.735Z,67.08
2017-01-21T11:06:34.742Z,67.18
2017-01-21T11:07:34.760Z,67.27
2017-01-21T11:08:34.766Z,67.37
2017-01-21T11:09:34.780Z,67.18
2017-01-21T11:10:34.789Z,66.99
2017-01-21T11:11:34.797Z,67.37
2017-01-21T11:12:34.811Z,67.65
2017-01-21T11:13:34.822Z,67.56
2017-01-21T11:14:34.835Z,66.71
2017-01-21T11:15:34.842Z,66.99
2017-01-21T11:16:34.855Z,66.89
2017-01-21T11:17:34.866Z,66.52
2017-01-21T11:18:34.877Z,66.99
2017-01-21T11:19:34.900Z,66.61
2017-01-21T11:20:34.898Z,66.99
2017-01-21T11:21:34.914Z,66.52
2017-01-21T11:22:34.922Z,67.27
2017-01-21T11:23:34.934Z,66.61
2017-01-21T11:24:34.943Z,66.89
2017-01-21T11:25:34.957Z,66.61
2017-01-21T11:26:34.966Z,66.89
2017-01-21T11:27:34.980Z,66.93
2017-01-21T11:28:34.988Z,66.93
2017-01-21T11:29:35.002Z,67.02
2017-01-21T11:30:35.011Z,66.55
2017-01-21T11:31:35.021Z,67.02
2017-01-21T11:32:35.032Z,66.64
2017-01-21T11:33:35.052Z,66.36
2017-01-21T11:34:35.058Z,66.36
2017-01-21T11:35:35.066Z,66.27
2017-01-21T11:36:35.078Z,66.46
2017-01-21T11:37:35.091Z,66.36
2017-01-21T11:38:35.125Z,66.36
2017-01-21T11:39:35.120Z,66.17
2017-01-21T11:40:35.123Z,66.27
2017-01-21T11:41:35.140Z,66.55
2017-01-21T11:42:35.147Z,66.27
2017-01-21T11:43:35.160Z,66.27
2017-01-21T11:44:35.176Z,66.46
2017-01-21T11:45:35.185Z,65.79
2017-01-21T11:46:35.196Z,65.88
2017-01-21T11:47:35.210Z,65.6
2017-01-21T11:48:35.217Z,65.79
2017-01-21T11:49:35.231Z,65.69
2017-01-21T11:50:35.241Z,65.41
2017-01-21T11:51:35.254Z,65.69
2017-01-21T11:52:35.273Z,65.79
2017-01-21T11:53:35.278Z,65.79
2017-01-21T11:54:35.293Z,65.88
2017-01-21T11:55:35.707Z,65.5
2017-01-21T11:56:35.314Z,65.88
2017-01-21T11:57:35.327Z,65.5
2017-01-21T11:58:35.333Z,65.69
2017-01-21T11:59:35.346Z,65.41
2017-01-21T12:00:35.357Z,65.69
2017-01-21T12:01:35.367Z,65.12
2017-01-21T12:02:35.380Z,65.69
2017-01-21T12:03:35.390Z,65.41
2017-01-21T12:04:35.457Z,65.41
2017-01-21T12:05:35.415Z,65.31
2017-01-21T12:06:35.425Z,65.31
2017-01-21T12:07:35.437Z,65.31
2017-01-21T12:08:35.459Z,65.25
2017-01-21T12:09:35.471Z,65.06
2017-01-21T12:10:35.472Z,65.22
2017-01-21T12:11:35.488Z,65.35
2017-01-21T12:12:35.501Z,65.25
2017-01-21T12:13:35.521Z,65.06
2017-01-21T12:14:35.525Z,65.06
2017-01-21T12:15:35.536Z,64.97
2017-01-21T12:16:35.546Z,64.84
2017-01-21T12:17:35.582Z,65.12
2017-01-21T12:18:35.566Z,64.94
2017-01-21T12:19:35.583Z,65.03
2017-01-21T12:20:35.602Z,64.78
2017-01-21T12:21:35.607Z,65.12
2017-01-21T12:22:35.618Z,64.87
2017-01-21T12:23:35.631Z,64.78
2017-01-21T12:24:35.640Z,64.87
2017-01-21T12:25:35.654Z,64.87
2017-01-21T12:26:35.666Z,64.4
2017-01-21T12:27:35.680Z,64.78
2017-01-21T12:28:35.691Z,64.59
2017-01-21T12:29:35.701Z,64.59
2017-01-21T12:30:35.714Z,64.3
2017-01-21T12:31:35.737Z,64.69
2017-01-21T12:32:35.742Z,64.4
2017-01-21T12:33:35.746Z,64.49
2017-01-21T12:34:35.767Z,64.02
2017-01-21T12:35:35.778Z,64.69
2017-01-21T12:36:35.789Z,64.02
2017-01-21T12:37:35.801Z,64.4
2017-01-21T12:38:35.810Z,63.92
2017-01-21T12:39:35.821Z,64.21
2017-01-21T12:40:35.833Z,63.92
2017-01-21T12:41:35.848Z,64.02
2017-01-21T12:42:35.862Z,64.02
2017-01-21T12:43:35.877Z,63.92
2017-01-21T12:44:35.886Z,64.02
2017-01-21T12:45:35.896Z,64.3
2017-01-21T12:46:35.910Z,64.02
2017-01-21T12:47:35.928Z,64.17
2017-01-21T12:48:35.928Z,64.4
2017-01-21T12:49:35.946Z,64.4
2017-01-21T12:50:35.962Z,64.4
2017-01-21T12:51:35.968Z,64.59
2017-01-21T12:52:35.987Z,63.83
2017-01-21T12:53:35.995Z,64.02
2017-01-21T12:54:36.007Z,64.21